Time;durP1;ratioP1;P1;durP2;ratioP2;P2;SDS_P1;SDS_P2;PMS_P1;PMS_P2;Temp;Humidity;BMP_temperature;BMP_pressure;BME280_temperature;BME280_humidity;BME280_pressure;Samples;Min_cycle;Max_cycle;Signal;HPM_P1;HPM_P2
2022/12/31 00:02:08;0.00;0.00;0.62;0.00;0.00;0.62;1.50;0.80;;;23.10;27.60;;;;;;2255248;61;20373;-53
2022/12/31 00:04:53;0.00;0.00;0.62;0.00;0.00;0.62;1.30;0.70;;;23.10;27.70;;;;;;2255184;61;20385;-54
2022/12/31 00:07:40;0.00;0.00;0.62;0.00;0.00;0.62;1.30;0.60;;;23.10;27.60;;;;;;2254738;61;20429;-55
2022/12/31 00:10:24;0.00;0.00;0.62;0.00;0.00;0.62;1.30;0.80;;;23.20;27.70;;;;;;2255104;61;20362;-58
2022/12/31 00:13:11;0.00;0.00;0.62;0.00;0.00;0.62;1.40;0.70;;;23.20;27.70;;;;;;2254365;61;20852;-57
2022/12/31 00:16:06;0.00;0.00;0.62;0.00;0.00;0.62;1.20;0.60;;;23.10;27.60;;;;;;2255369;61;20433;-58
2022/12/31 00:18:54;0.00;0.00;0.62;0.00;0.00;0.62;1.30;0.60;;;23.10;27.70;;;;;;2255445;61;20417;-55
2022/12/31 00:21:39;0.00;0.00;0.62;0.00;0.00;0.62;1.30;0.70;;;23.20;27.70;;;;;;2254879;61;20801;-55
2022/12/31 00:24:29;0.00;0.00;0.62;0.00;0.00;0.62;1.30;0.70;;;23.20;27.70;;;;;;2255288;61;20382;-55
2022/12/31 00:27:15;0.00;0.00;0.62;0.00;0.00;0.62;2.03;0.70;;;23.20;27.70;;;;;;2255248;61;20386;-55
2022/12/31 00:29:59;0.00;0.00;0.62;0.00;0.00;0.62;1.20;0.60;;;23.20;27.70;;;;;;2254756;61;20436;-53
2022/12/31 00:32:44;0.00;0.00;0.62;0.00;0.00;0.62;1.30;0.70;;;23.20;27.70;;;;;;2255121;61;20382;-55
2022/12/31 00:35:29;0.00;0.00;0.62;0.00;0.00;0.62;1.30;0.70;;;23.20;27.70;;;;;;2255037;61;20394;-56
2022/12/31 00:38:14;0.00;0.00;0.62;0.00;0.00;0.62;1.40;0.70;;;23.20;28.20;;;;;;2255201;61;20890;-55
2022/12/31 00:41:00;0.00;0.00;0.62;0.00;0.00;0.62;1.30;0.60;;;23.20;27.70;;;;;;2255529;61;20435;-53
2022/12/31 00:43:45;0.00;0.00;0.62;0.00;0.00;0.62;1.20;0.60;;;23.20;27.70;;;;;;2253993;61;20394;-51
2022/12/31 00:46:30;0.00;0.00;0.62;0.00;0.00;0.62;1.30;0.60;;;23.20;27.70;;;;;;2255169;61;20389;-54
2022/12/31 00:49:16;0.00;0.00;0.62;0.00;0.00;0.62;1.30;0.60;;;23.20;27.70;;;;;;2255361;61;20382;-53
2022/12/31 00:52:04;0.00;0.00;0.62;0.00;0.00;0.62;1.30;0.70;;;23.20;27.70;;;;;;2255016;61;20374;-55
2022/12/31 00:54:48;0.00;0.00;0.62;0.00;0.00;0.62;1.30;0.60;;;23.20;27.70;;;;;;2255174;61;20930;-53
2022/12/31 00:57:34;0.00;0.00;0.62;0.00;0.00;0.62;1.27;0.60;;;23.20;27.70;;;;;;2254641;61;20369;-56
2022/12/31 01:00:19;0.00;0.00;0.62;0.00;0.00;0.62;1.30;0.60;;;23.30;27.70;;;;;;2255208;61;20493;-53
2022/12/31 01:03:05;0.00;0.00;0.62;0.00;0.00;0.62;1.40;0.60;;;23.20;27.70;;;;;;2255129;61;20374;-59
2022/12/31 01:05:51;0.00;0.00;0.62;0.00;0.00;0.62;2.00;0.67;;;23.20;27.70;;;;;;2254658;61;20385;-56
2022/12/31 01:08:36;0.00;0.00;0.62;0.00;0.00;0.62;1.27;0.60;;;23.30;27.80;;;;;;2255279;61;20409;-58
2022/12/31 01:11:22;0.00;0.00;0.62;0.00;0.00;0.62;1.47;0.70;;;23.20;27.70;;;;;;2255134;61;20361;-57
2022/12/31 01:14:11;0.00;0.00;0.62;0.00;0.00;0.62;1.50;0.70;;;23.20;27.70;;;;;;2254573;61;20386;-57
2022/12/31 01:16:57;0.00;0.00;0.62;0.00;0.00;0.62;1.30;0.60;;;23.30;27.80;;;;;;2255247;61;20875;-61
2022/12/31 01:19:42;0.00;0.00;0.62;0.00;0.00;0.62;1.33;0.60;;;23.20;27.70;;;;;;2254692;61;20401;-57
2022/12/31 01:22:27;0.00;0.00;0.62;0.00;0.00;0.62;1.40;0.70;;;23.30;27.90;;;;;;2254643;61;20362;-61
2022/12/31 01:25:11;0.00;0.00;0.62;0.00;0.00;0.62;2.00;0.70;;;23.30;27.90;;;;;;2254726;61;20431;-61
2022/12/31 01:27:56;0.00;0.00;0.62;0.00;0.00;0.62;1.20;0.60;;;23.30;27.90;;;;;;2254320;61;20385;-60
2022/12/31 01:30:42;0.00;0.00;0.62;0.00;0.00;0.62;1.53;0.73;;;23.30;27.90;;;;;;2255235;61;20413;-60
2022/12/31 01:33:26;0.00;0.00;0.62;0.00;0.00;0.62;10.73;0.93;;;23.30;27.90;;;;;;2254877;61;20366;-60
2022/12/31 01:36:15;0.00;0.00;0.62;0.00;0.00;0.62;1.30;0.63;;;23.30;28.00;;;;;;2254456;61;20398;-61
2022/12/31 01:39:02;0.00;0.00;0.62;0.00;0.00;0.62;1.30;0.60;;;23.20;27.90;;;;;;2255158;61;20404;-60
2022/12/31 01:41:47;0.00;0.00;0.62;0.00;0.00;0.62;1.60;0.70;;;23.20;28.00;;;;;;2254581;61;20412;-61
2022/12/31 01:44:52;0.00;0.00;0.62;0.00;0.00;0.62;2.10;0.63;;;23.20;28.00;;;;;;2254970;61;20805;-61
2022/12/31 01:47:43;0.00;0.00;0.62;0.00;0.00;0.62;1.30;0.70;;;23.20;28.10;;;;;;2255167;61;20393;-60
2022/12/31 01:50:34;0.00;0.00;0.62;0.00;0.00;0.62;1.30;0.70;;;23.20;28.20;;;;;;2254522;61;20424;-61
2022/12/31 01:53:19;0.00;0.00;0.62;0.00;0.00;0.62;1.30;0.70;;;23.10;28.20;;;;;;2255242;61;20829;-60
2022/12/31 01:56:05;0.00;0.00;0.62;0.00;0.00;0.62;1.20;0.70;;;23.20;28.20;;;;;;2255764;61;20365;-61
2022/12/31 01:58:54;0.00;0.00;0.62;0.00;0.00;0.62;1.30;0.70;;;23.10;28.30;;;;;;2255562;61;20386;-58
2022/12/31 02:01:38;0.00;0.00;0.62;0.00;0.00;0.62;1.20;0.60;;;23.10;28.40;;;;;;2255653;61;20399;-60
2022/12/31 02:04:26;0.00;0.00;0.62;0.00;0.00;0.62;1.87;0.70;;;23.10;28.50;;;;;;2255013;61;20428;-60
2022/12/31 02:07:12;0.00;0.00;0.62;0.00;0.00;0.62;1.30;0.63;;;23.00;28.50;;;;;;2255716;61;20440;-61
2022/12/31 02:09:56;0.00;0.00;0.62;0.00;0.00;0.62;1.70;0.70;;;23.10;28.70;;;;;;2255723;61;20405;-63
2022/12/31 02:12:42;0.00;0.00;0.62;0.00;0.00;0.62;1.40;0.70;;;23.00;28.70;;;;;;2255127;61;20438;-60
2022/12/31 02:15:38;0.00;0.00;0.62;0.00;0.00;0.62;1.30;0.70;;;23.00;28.60;;;;;;2255745;61;20422;-60
2022/12/31 02:18:31;0.00;0.00;0.62;0.00;0.00;0.62;1.40;0.70;;;23.00;28.70;;;;;;2255558;61;20939;-60
2022/12/31 02:21:49;0.00;0.00;0.62;0.00;0.00;0.62;1.20;0.60;;;23.00;28.70;;;;;;2255750;61;20929;-60
2022/12/31 02:25:15;0.00;0.00;0.62;0.00;0.00;0.62;1.20;0.60;;;23.00;28.70;;;;;;2255436;61;20436;-61
2022/12/31 02:28:16;0.00;0.00;0.62;0.00;0.00;0.62;1.20;0.70;;;23.00;28.70;;;;;;2255186;61;20386;-58
2022/12/31 02:31:10;0.00;0.00;0.62;0.00;0.00;0.62;1.70;0.80;;;22.90;28.70;;;;;;2255707;61;20806;-60
2022/12/31 02:34:00;0.00;0.00;0.62;0.00;0.00;0.62;1.20;0.60;;;22.90;28.80;;;;;;2255134;61;20737;-59
2022/12/31 02:36:47;0.00;0.00;0.62;0.00;0.00;0.62;1.33;0.63;;;22.90;28.90;;;;;;2255647;61;20366;-60
2022/12/31 02:39:34;0.00;0.00;0.62;0.00;0.00;0.62;1.50;0.70;;;22.90;29.00;;;;;;2255594;61;20358;-60
2022/12/31 02:42:18;0.00;0.00;0.62;0.00;0.00;0.62;1.30;0.63;;;22.90;29.10;;;;;;2255137;61;20365;-58
2022/12/31 02:45:05;0.00;0.00;0.62;0.00;0.00;0.62;1.20;0.60;;;22.90;29.10;;;;;;2255488;61;20953;-60
2022/12/31 02:48:16;0.00;0.00;0.62;0.00;0.00;0.62;1.30;0.60;;;22.90;29.10;;;;;;2255434;61;20401;-60
2022/12/31 02:51:21;0.00;0.00;0.62;0.00;0.00;0.62;1.40;0.73;;;22.90;29.20;;;;;;2255804;61;20393;-60
2022/12/31 02:54:22;0.00;0.00;0.62;0.00;0.00;0.62;1.20;0.50;;;22.90;29.10;;;;;;2255313;61;20448;-59
2022/12/31 02:57:14;0.00;0.00;0.62;0.00;0.00;0.62;1.40;0.60;;;22.80;28.90;;;;;;2255097;61;20370;-59
2022/12/31 03:03:09;0.00;0.00;0.62;0.00;0.00;0.62;1.60;0.70;;;22.90;28.90;;;;;;2255199;61;20421;-60
2022/12/31 03:05:55;0.00;0.00;0.62;0.00;0.00;0.62;1.20;0.60;;;22.90;28.90;;;;;;2255601;61;20370;-62
2022/12/31 03:14:49;0.00;0.00;0.62;0.00;0.00;0.62;1.40;0.70;;;22.90;28.90;;;;;;2255452;61;20925;-60
2022/12/31 03:17:34;0.00;0.00;0.62;0.00;0.00;0.62;1.40;0.70;;;22.80;28.80;;;;;;2255239;61;20786;-60
2022/12/31 03:23:30;0.00;0.00;0.62;0.00;0.00;0.62;1.20;0.60;;;22.90;28.90;;;;;;2255222;61;20542;-60
2022/12/31 03:26:15;0.00;0.00;0.62;0.00;0.00;0.62;1.20;0.50;;;22.90;28.90;;;;;;2254563;61;20366;-60
2022/12/31 03:29:00;0.00;0.00;0.62;0.00;0.00;0.62;1.73;0.70;;;22.90;28.90;;;;;;2255385;61;20369;-60
2022/12/31 03:31:46;0.00;0.00;0.62;0.00;0.00;0.62;1.20;0.60;;;22.90;28.90;;;;;;2255531;61;20898;-58
2022/12/31 03:34:32;0.00;0.00;0.62;0.00;0.00;0.62;1.20;0.60;;;22.90;28.90;;;;;;2254507;61;20400;-60
2022/12/31 03:37:18;0.00;0.00;0.62;0.00;0.00;0.62;1.30;0.60;;;22.90;28.90;;;;;;2255244;61;20362;-60
2022/12/31 03:40:04;0.00;0.00;0.62;0.00;0.00;0.62;1.27;0.67;;;22.90;29.00;;;;;;2255071;61;20879;-59
2022/12/31 03:42:49;0.00;0.00;0.62;0.00;0.00;0.62;1.40;0.60;;;22.90;29.00;;;;;;2255589;61;20424;-60
2022/12/31 03:45:34;0.00;0.00;0.62;0.00;0.00;0.62;1.20;0.60;;;22.90;29.10;;;;;;2255260;61;20929;-57
2022/12/31 03:48:22;0.00;0.00;0.62;0.00;0.00;0.62;1.20;0.60;;;22.90;29.20;;;;;;2254939;61;20890;-60
2022/12/31 03:51:07;0.00;0.00;0.62;0.00;0.00;0.62;1.50;0.80;;;22.90;29.70;;;;;;2255187;61;20370;-60
2022/12/31 03:53:53;0.00;0.00;0.62;0.00;0.00;0.62;1.63;0.70;;;22.90;29.30;;;;;;2255302;61;20470;-60
2022/12/31 03:56:38;0.00;0.00;0.62;0.00;0.00;0.62;1.40;0.70;;;22.90;29.40;;;;;;2254856;61;20370;-59
2022/12/31 03:59:23;0.00;0.00;0.62;0.00;0.00;0.62;1.73;0.70;;;22.90;29.50;;;;;;2255359;61;20420;-58
2022/12/31 04:02:07;0.00;0.00;0.62;0.00;0.00;0.62;1.40;0.70;;;22.80;29.40;;;;;;2255187;61;20520;-58
2022/12/31 04:04:52;0.00;0.00;0.62;0.00;0.00;0.62;1.70;0.80;;;22.80;29.50;;;;;;2255207;61;20432;-60
2022/12/31 04:07:37;0.00;0.00;0.62;0.00;0.00;0.62;2.60;0.87;;;22.80;29.40;;;;;;2255384;61;20413;-60
2022/12/31 04:10:23;0.00;0.00;0.62;0.00;0.00;0.62;1.50;0.80;;;22.90;29.60;;;;;;2254828;61;20452;-60
2022/12/31 04:13:08;0.00;0.00;0.62;0.00;0.00;0.62;1.50;0.70;;;22.90;29.70;;;;;;2254693;61;20366;-60
2022/12/31 04:15:53;0.00;0.00;0.62;0.00;0.00;0.62;1.40;0.60;;;22.90;29.70;;;;;;2255658;61;20815;-60
2022/12/31 04:18:38;0.00;0.00;0.62;0.00;0.00;0.62;1.57;0.90;;;22.90;29.70;;;;;;2251428;61;20468;-60
2022/12/31 04:21:22;0.00;0.00;0.62;0.00;0.00;0.62;1.20;0.60;;;22.90;29.70;;;;;;2255268;61;20970;-60
2022/12/31 04:24:07;0.00;0.00;0.62;0.00;0.00;0.62;1.30;0.60;;;22.90;29.60;;;;;;2255089;61;20409;-61
2022/12/31 04:26:53;0.00;0.00;0.62;0.00;0.00;0.62;1.20;0.60;;;22.90;29.60;;;;;;2254871;61;20857;-61
2022/12/31 04:29:39;0.00;0.00;0.62;0.00;0.00;0.62;1.47;0.60;;;22.90;29.60;;;;;;2254899;61;20408;-60
2022/12/31 04:32:24;0.00;0.00;0.62;0.00;0.00;0.62;1.30;0.63;;;22.90;29.50;;;;;;2254763;61;20427;-61
2022/12/31 04:35:10;0.00;0.00;0.62;0.00;0.00;0.62;1.20;0.60;;;22.90;30.00;;;;;;2255162;61;20807;-59
2022/12/31 04:37:55;0.00;0.00;0.62;0.00;0.00;0.62;1.47;0.63;;;22.90;29.50;;;;;;2255304;61;20362;-60
2022/12/31 04:41:15;0.00;0.00;0.62;0.00;0.00;0.62;1.63;0.90;;;22.90;29.50;;;;;;2254726;61;20500;-56
2022/12/31 04:43:49;0.00;0.00;0.62;0.00;0.00;0.62;1.40;0.70;;;22.90;29.50;;;;;;2254723;61;20832;-60
2022/12/31 04:46:34;0.00;0.00;0.62;0.00;0.00;0.62;1.43;0.60;;;22.90;29.50;;;;;;2254924;61;20855;-60
2022/12/31 04:49:19;0.00;0.00;0.62;0.00;0.00;0.62;1.70;0.70;;;22.90;29.50;;;;;;2255187;61;20412;-59
2022/12/31 04:52:05;0.00;0.00;0.62;0.00;0.00;0.62;1.20;0.60;;;23.00;29.60;;;;;;2254931;61;20464;-59
2022/12/31 04:54:50;0.00;0.00;0.62;0.00;0.00;0.62;1.27;0.70;;;22.90;29.50;;;;;;2254591;61;20436;-60
2022/12/31 04:57:34;0.00;0.00;0.62;0.00;0.00;0.62;1.27;0.60;;;23.00;29.60;;;;;;2255019;61;20406;-61
2022/12/31 05:00:20;0.00;0.00;0.62;0.00;0.00;0.62;1.20;0.60;;;23.00;29.60;;;;;;2255215;61;20365;-62
2022/12/31 05:03:05;0.00;0.00;0.62;0.00;0.00;0.62;1.20;0.60;;;23.00;29.60;;;;;;2254454;61;20412;-61
2022/12/31 05:05:51;0.00;0.00;0.62;0.00;0.00;0.62;1.30;0.60;;;23.00;29.60;;;;;;2255322;61;20370;-61
2022/12/31 05:08:36;0.00;0.00;0.62;0.00;0.00;0.62;1.20;0.60;;;23.00;29.60;;;;;;2254840;61;20468;-58
2022/12/31 05:11:20;0.00;0.00;0.62;0.00;0.00;0.62;1.30;0.60;;;23.00;29.60;;;;;;2255058;61;20370;-60
2022/12/31 05:14:05;0.00;0.00;0.62;0.00;0.00;0.62;1.30;0.60;;;23.00;29.60;;;;;;2254943;61;20390;-55
2022/12/31 05:16:51;0.00;0.00;0.62;0.00;0.00;0.62;1.20;0.60;;;23.00;29.60;;;;;;2254662;61;20954;-57
2022/12/31 05:19:36;0.00;0.00;0.62;0.00;0.00;0.62;1.57;0.60;;;23.00;29.60;;;;;;2255258;61;20370;-59
2022/12/31 05:22:30;0.00;0.00;0.62;0.00;0.00;0.62;1.20;0.60;;;23.00;29.60;;;;;;2255079;61;20848;-56
2022/12/31 05:25:14;0.00;0.00;0.62;0.00;0.00;0.62;1.20;0.60;;;23.00;29.60;;;;;;2253999;61;20393;-60
2022/12/31 05:27:59;0.00;0.00;0.62;0.00;0.00;0.62;1.20;0.60;;;23.00;29.70;;;;;;2255244;61;20500;-60
2022/12/31 05:30:48;0.00;0.00;0.62;0.00;0.00;0.62;1.20;0.60;;;23.00;29.70;;;;;;2255676;61;20385;-60
2022/12/31 05:33:34;0.00;0.00;0.62;0.00;0.00;0.62;1.20;0.50;;;23.00;29.70;;;;;;2255397;61;20362;-59
2022/12/31 05:36:20;0.00;0.00;0.62;0.00;0.00;0.62;1.30;0.50;;;23.00;29.70;;;;;;2255743;61;20461;-59
2022/12/31 05:39:05;0.00;0.00;0.62;0.00;0.00;0.62;1.20;0.50;;;23.00;29.70;;;;;;2255201;61;20454;-56
2022/12/31 05:41:49;0.00;0.00;0.62;0.00;0.00;0.62;1.40;0.70;;;23.00;29.70;;;;;;2256001;61;20439;-60
2022/12/31 05:44:34;0.00;0.00;0.62;0.00;0.00;0.62;1.20;0.60;;;23.00;29.70;;;;;;2255610;61;20385;-60
2022/12/31 05:47:19;0.00;0.00;0.62;0.00;0.00;0.62;1.80;0.60;;;23.00;29.70;;;;;;2255157;61;20386;-60
2022/12/31 05:50:07;0.00;0.00;0.62;0.00;0.00;0.62;1.20;0.50;;;23.00;29.70;;;;;;2255467;61;20369;-60
2022/12/31 05:52:52;0.00;0.00;0.62;0.00;0.00;0.62;1.70;0.60;;;23.00;29.80;;;;;;2255552;61;20508;-58
2022/12/31 05:55:36;0.00;0.00;0.62;0.00;0.00;0.62;1.20;0.50;;;23.00;29.80;;;;;;2255224;61;20428;-56
2022/12/31 05:58:22;0.00;0.00;0.62;0.00;0.00;0.62;1.20;0.50;;;23.00;29.80;;;;;;2255231;61;20362;-60
2022/12/31 06:01:06;0.00;0.00;0.62;0.00;0.00;0.62;1.50;0.70;;;23.00;29.80;;;;;;2255208;61;20897;-59
2022/12/31 06:03:51;0.00;0.00;0.62;0.00;0.00;0.62;1.33;0.57;;;23.00;29.80;;;;;;2255547;61;20487;-61
2022/12/31 06:06:37;0.00;0.00;0.62;0.00;0.00;0.62;1.30;0.60;;;23.00;29.80;;;;;;2255411;61;20362;-60
2022/12/31 06:09:22;0.00;0.00;0.62;0.00;0.00;0.62;1.30;0.60;;;23.00;29.80;;;;;;2254897;61;20477;-61
2022/12/31 06:12:08;0.00;0.00;0.62;0.00;0.00;0.62;1.23;0.60;;;23.00;29.80;;;;;;2643303;45;20365;-60
2022/12/31 06:14:53;0.00;0.00;0.62;0.00;0.00;0.62;1.20;0.60;;;23.00;29.90;;;;;;2251565;61;20391;-59
2022/12/31 06:17:38;0.00;0.00;0.62;0.00;0.00;0.62;1.50;0.60;;;23.00;29.90;;;;;;2251279;61;20362;-60
2022/12/31 06:20:23;0.00;0.00;0.62;0.00;0.00;0.62;1.20;0.60;;;23.00;29.90;;;;;;2251777;61;20374;-60
2022/12/31 06:23:09;0.00;0.00;0.62;0.00;0.00;0.62;1.30;0.60;;;23.00;29.90;;;;;;2250931;61;20844;-59
2022/12/31 06:25:54;0.00;0.00;0.62;0.00;0.00;0.62;1.20;0.60;;;23.00;29.90;;;;;;2251578;61;20918;-59
2022/12/31 06:28:38;0.00;0.00;0.62;0.00;0.00;0.62;1.33;0.60;;;23.00;29.90;;;;;;2251708;61;20393;-58
2022/12/31 06:31:23;0.00;0.00;0.62;0.00;0.00;0.62;1.37;0.60;;;23.00;29.90;;;;;;2251540;61;20510;-60
2022/12/31 06:34:08;0.00;0.00;0.62;0.00;0.00;0.62;1.73;0.90;;;23.00;30.00;;;;;;2255551;61;20973;-59
2022/12/31 06:36:53;0.00;0.00;0.62;0.00;0.00;0.62;1.20;0.57;;;23.10;30.00;;;;;;2255267;61;20362;-60
2022/12/31 06:39:39;0.00;0.00;0.62;0.00;0.00;0.62;1.30;0.60;;;23.10;30.00;;;;;;2255296;61;20413;-61
2022/12/31 06:42:27;0.00;0.00;0.62;0.00;0.00;0.62;1.30;0.60;;;23.00;30.00;;;;;;2255133;61;20384;-61
2022/12/31 06:45:11;0.00;0.00;0.62;0.00;0.00;0.62;1.40;0.70;;;23.10;30.00;;;;;;2255023;61;20397;-61
2022/12/31 06:47:56;0.00;0.00;0.62;0.00;0.00;0.62;1.20;0.60;;;23.10;30.10;;;;;;2255298;61;20394;-60
2022/12/31 06:50:41;0.00;0.00;0.62;0.00;0.00;0.62;1.20;0.50;;;23.10;30.10;;;;;;2255984;61;20461;-59
2022/12/31 06:53:25;0.00;0.00;0.62;0.00;0.00;0.62;1.30;0.60;;;23.10;30.00;;;;;;2254858;61;20365;-59
2022/12/31 06:56:16;0.00;0.00;0.62;0.00;0.00;0.62;1.77;0.70;;;23.10;30.00;;;;;;2256012;61;20436;-59
2022/12/31 06:59:02;0.00;0.00;0.62;0.00;0.00;0.62;1.40;0.60;;;23.10;30.00;;;;;;2255304;61;20404;-60
2022/12/31 07:01:57;0.00;0.00;0.62;0.00;0.00;0.62;1.20;0.50;;;23.10;30.00;;;;;;2254737;61;20759;-60
2022/12/31 07:05:18;0.00;0.00;0.62;0.00;0.00;0.62;1.20;0.60;;;23.10;30.00;;;;;;2255434;61;20382;-59
2022/12/31 07:08:23;0.00;0.00;0.62;0.00;0.00;0.62;1.50;0.70;;;23.10;30.00;;;;;;2253969;61;20847;-59
2022/12/31 07:11:17;0.00;0.00;0.62;0.00;0.00;0.62;1.87;0.90;;;23.10;30.00;;;;;;2255538;61;20813;-59
2022/12/31 07:14:25;0.00;0.00;0.62;0.00;0.00;0.62;1.20;0.60;;;23.10;30.00;;;;;;2255356;61;20418;-59
2022/12/31 07:17:24;0.00;0.00;0.62;0.00;0.00;0.62;1.60;0.70;;;23.10;30.00;;;;;;2255787;61;20445;-60
2022/12/31 07:20:12;0.00;0.00;0.62;0.00;0.00;0.62;1.30;0.60;;;23.10;30.00;;;;;;2255436;61;20478;-59
2022/12/31 07:22:59;0.00;0.00;0.62;0.00;0.00;0.62;1.33;0.70;;;23.10;30.00;;;;;;2254834;61;20366;-56
2022/12/31 07:25:52;0.00;0.00;0.62;0.00;0.00;0.62;1.30;0.60;;;23.10;30.00;;;;;;2255576;61;20382;-57
2022/12/31 07:28:56;0.00;0.00;0.62;0.00;0.00;0.62;1.20;0.60;;;23.10;30.00;;;;;;2255328;61;20479;-59
2022/12/31 07:31:57;0.00;0.00;0.62;0.00;0.00;0.62;1.20;0.57;;;23.10;30.00;;;;;;2255022;61;20416;-59
2022/12/31 07:34:52;0.00;0.00;0.62;0.00;0.00;0.62;1.57;0.70;;;23.10;30.10;;;;;;2254910;61;20453;-60
2022/12/31 07:37:44;0.00;0.00;0.62;0.00;0.00;0.62;1.30;0.70;;;23.10;30.10;;;;;;2254971;61;20401;-60
2022/12/31 07:40:46;0.00;0.00;0.62;0.00;0.00;0.62;1.40;0.60;;;23.10;30.10;;;;;;2255525;61;20366;-60
2022/12/31 07:43:38;0.00;0.00;0.62;0.00;0.00;0.62;1.23;0.60;;;23.10;30.10;;;;;;2255251;61;20365;-61
2022/12/31 07:46:34;0.00;0.00;0.62;0.00;0.00;0.62;1.40;0.60;;;23.10;30.10;;;;;;2255068;61;20447;-62
2022/12/31 07:49:23;0.00;0.00;0.62;0.00;0.00;0.62;1.23;0.70;;;23.10;30.20;;;;;;2254416;61;20438;-62
2022/12/31 07:52:09;0.00;0.00;0.62;0.00;0.00;0.62;1.67;0.70;;;23.10;30.20;;;;;;2253853;61;20370;-62
2022/12/31 07:54:54;0.00;0.00;0.62;0.00;0.00;0.62;1.30;0.73;;;23.10;30.20;;;;;;2255576;61;20471;-58
2022/12/31 07:57:48;0.00;0.00;0.62;0.00;0.00;0.62;1.73;0.73;;;23.10;30.20;;;;;;2255397;61;20380;-63
2022/12/31 08:00:33;0.00;0.00;0.62;0.00;0.00;0.62;2.43;0.80;;;23.10;30.20;;;;;;2251720;61;20373;-52
2022/12/31 08:03:39;0.00;0.00;0.62;0.00;0.00;0.62;1.83;0.90;;;23.10;30.20;;;;;;2255362;61;20393;-54
2022/12/31 08:06:33;0.00;0.00;0.62;0.00;0.00;0.62;1.30;0.80;;;23.10;30.30;;;;;;2255628;61;20408;-50
2022/12/31 08:09:36;0.00;0.00;0.62;0.00;0.00;0.62;1.40;0.80;;;23.20;30.30;;;;;;2255559;61;20397;-53
2022/12/31 08:12:22;0.00;0.00;0.62;0.00;0.00;0.62;1.57;0.73;;;23.10;30.40;;;;;;2255332;61;20386;-59
2022/12/31 08:15:14;0.00;0.00;0.62;0.00;0.00;0.62;1.60;0.83;;;23.10;30.40;;;;;;2254794;61;20917;-58
2022/12/31 08:17:59;0.00;0.00;0.62;0.00;0.00;0.62;1.27;0.70;;;23.20;30.40;;;;;;2255325;61;20358;-63
2022/12/31 08:20:56;0.00;0.00;0.62;0.00;0.00;0.62;1.40;0.70;;;23.20;30.40;;;;;;2255562;61;20400;-47
2022/12/31 08:23:53;0.00;0.00;0.62;0.00;0.00;0.62;1.40;0.90;;;23.20;30.40;;;;;;2254921;61;21017;-49
2022/12/31 08:26:50;0.00;0.00;0.62;0.00;0.00;0.62;1.50;0.80;;;23.20;30.40;;;;;;2255415;61;20963;-62
2022/12/31 08:29:44;0.00;0.00;0.62;0.00;0.00;0.62;1.63;0.80;;;23.20;30.40;;;;;;2254952;61;20470;-62
2022/12/31 08:32:39;0.00;0.00;0.62;0.00;0.00;0.62;1.63;0.93;;;23.20;30.40;;;;;;2271818;61;20394;-62
2022/12/31 08:35:37;0.00;0.00;0.62;0.00;0.00;0.62;1.33;0.73;;;23.20;30.40;;;;;;2255522;61;20385;-63
2022/12/31 08:38:32;0.00;0.00;0.62;0.00;0.00;0.62;1.67;0.70;;;23.20;30.40;;;;;;2254969;61;20446;-50
2022/12/31 08:41:26;0.00;0.00;0.62;0.00;0.00;0.62;1.37;0.70;;;23.20;30.40;;;;;;2255537;61;20369;-60
2022/12/31 08:44:26;0.00;0.00;0.62;0.00;0.00;0.62;1.67;0.73;;;23.20;30.40;;;;;;2254569;61;20381;-61
2022/12/31 08:47:20;0.00;0.00;0.62;0.00;0.00;0.62;1.60;0.70;;;23.20;30.50;;;;;;2255393;61;20440;-61
2022/12/31 08:50:13;0.00;0.00;0.62;0.00;0.00;0.62;1.20;0.60;;;23.20;30.50;;;;;;2255465;61;20447;-61
2022/12/31 08:52:59;0.00;0.00;0.62;0.00;0.00;0.62;1.20;0.60;;;23.20;30.40;;;;;;2485354;53;20355;-54
2022/12/31 08:55:48;0.00;0.00;0.62;0.00;0.00;0.62;1.40;0.70;;;23.20;30.40;;;;;;2253802;61;20950;-53
2022/12/31 08:58:48;0.00;0.00;0.62;0.00;0.00;0.62;1.30;0.70;;;23.20;30.50;;;;;;2254075;61;20464;-51
2022/12/31 09:01:45;0.00;0.00;0.62;0.00;0.00;0.62;1.30;0.70;;;23.20;30.50;;;;;;2255364;61;20402;-50
2022/12/31 09:04:43;0.00;0.00;0.62;0.00;0.00;0.62;1.60;0.70;;;23.20;30.40;;;;;;2256078;61;20406;-52
2022/12/31 09:07:36;0.00;0.00;0.62;0.00;0.00;0.62;1.33;0.70;;;23.20;30.50;;;;;;2255237;61;20377;-57
2022/12/31 09:10:27;0.00;0.00;0.62;0.00;0.00;0.62;1.20;0.60;;;23.30;30.60;;;;;;2256224;61;20785;-50
2022/12/31 09:13:24;0.00;0.00;0.62;0.00;0.00;0.62;1.50;0.90;;;23.30;30.80;;;;;;2255188;61;20356;-57
2022/12/31 09:16:17;0.00;0.00;0.62;0.00;0.00;0.62;1.20;0.60;;;23.30;30.80;;;;;;2256200;61;20894;-47
2022/12/31 09:19:02;0.00;0.00;0.62;0.00;0.00;0.62;5.70;0.77;;;23.30;30.80;;;;;;2256021;61;20469;-58
2022/12/31 09:21:48;0.00;0.00;0.62;0.00;0.00;0.62;1.40;0.70;;;23.30;30.80;;;;;;2255159;61;20361;-57
2022/12/31 09:24:33;0.00;0.00;0.62;0.00;0.00;0.62;1.40;0.77;;;23.30;30.70;;;;;;2255849;61;20393;-60
2022/12/31 09:27:26;0.00;0.00;0.62;0.00;0.00;0.62;1.20;0.60;;;23.30;30.80;;;;;;2255993;61;20472;-63
2022/12/31 09:30:16;0.00;0.00;0.62;0.00;0.00;0.62;1.50;0.80;;;23.30;30.80;;;;;;2255653;61;20373;-63
2022/12/31 09:33:06;0.00;0.00;0.62;0.00;0.00;0.62;1.33;0.60;;;23.30;30.70;;;;;;2266420;58;20370;-63
2022/12/31 09:35:55;0.00;0.00;0.62;0.00;0.00;0.62;1.23;0.60;;;23.40;30.80;;;;;;2255134;61;20469;-63
2022/12/31 09:38:51;0.00;0.00;0.62;0.00;0.00;0.62;1.40;0.80;;;23.30;30.70;;;;;;2255885;61;20404;-60
2022/12/31 09:42:04;0.00;0.00;0.62;0.00;0.00;0.62;1.40;0.70;;;23.30;30.70;;;;;;2255897;61;20393;-64
2022/12/31 09:45:29;0.00;0.00;0.62;0.00;0.00;0.62;1.73;0.70;;;23.40;30.80;;;;;;2255943;61;20385;-61
2022/12/31 09:48:46;0.00;0.00;0.62;0.00;0.00;0.62;1.30;0.70;;;23.40;30.80;;;;;;2256068;61;20378;-57
2022/12/31 09:51:37;0.00;0.00;0.62;0.00;0.00;0.62;1.40;0.70;;;23.40;30.80;;;;;;2254893;61;20509;-61
2022/12/31 09:54:43;0.00;0.00;0.62;0.00;0.00;0.62;1.60;0.77;;;23.40;30.80;;;;;;2254948;61;20385;-62
2022/12/31 09:57:39;0.00;0.00;0.62;0.00;0.00;0.62;1.40;0.80;;;23.40;30.80;;;;;;2254707;61;20906;-52
2022/12/31 10:00:37;0.00;0.00;0.62;0.00;0.00;0.62;1.50;0.93;;;23.40;30.80;;;;;;2485998;53;20766;-56
2022/12/31 10:03:56;0.00;0.00;0.62;0.00;0.00;0.62;2.00;1.40;;;23.40;30.80;;;;;;2251558;61;20387;-52
2022/12/31 10:06:53;0.00;0.00;0.62;0.00;0.00;0.62;2.40;1.70;;;23.50;30.90;;;;;;2251503;61;20375;-50
2022/12/31 10:10:01;0.00;0.00;0.62;0.00;0.00;0.62;2.70;1.57;;;23.50;30.90;;;;;;2252447;61;20351;-51
2022/12/31 10:13:40;0.00;0.00;0.62;0.00;0.00;0.62;2.10;1.33;;;23.40;30.80;;;;;;2252202;61;20355;-55
2022/12/31 10:17:05;0.00;0.00;0.62;0.00;0.00;0.62;2.20;1.47;;;23.50;30.90;;;;;;2253972;61;20458;-60
2022/12/31 10:20:32;0.00;0.00;0.62;0.00;0.00;0.62;3.07;1.67;;;23.50;30.90;;;;;;2254825;61;20380;-60
2022/12/31 10:23:49;0.00;0.00;0.62;0.00;0.00;0.62;1.90;1.43;;;23.50;30.80;;;;;;2255560;61;20358;-59
2022/12/31 10:26:58;0.00;0.00;0.62;0.00;0.00;0.62;2.57;1.53;;;23.50;30.90;;;;;;2256164;61;20420;-56
2022/12/31 10:29:47;0.00;0.00;0.62;0.00;0.00;0.62;3.30;1.53;;;23.50;30.80;;;;;;2256088;61;20387;-57
2022/12/31 10:32:42;0.00;0.00;0.62;0.00;0.00;0.62;2.00;1.63;;;23.50;30.80;;;;;;2255121;61;20914;-55
2022/12/31 10:35:35;0.00;0.00;0.62;0.00;0.00;0.62;4.00;1.30;;;23.60;30.90;;;;;;2255199;61;20393;-55
2022/12/31 10:38:31;0.00;0.00;0.62;0.00;0.00;0.62;4.10;0.80;;;23.60;30.90;;;;;;2255659;61;20897;-56
2022/12/31 10:41:57;0.00;0.00;0.62;0.00;0.00;0.62;1.70;1.13;;;23.60;30.90;;;;;;2255918;61;20366;-55
2022/12/31 10:45:52;0.00;0.00;0.62;0.00;0.00;0.62;2.07;1.27;;;23.60;30.80;;;;;;2255623;61;20467;-61
2022/12/31 10:49:09;0.00;0.00;0.62;0.00;0.00;0.62;2.37;1.00;;;23.60;30.80;;;;;;2246655;61;20489;-61
2022/12/31 10:53:14;0.00;0.00;0.62;0.00;0.00;0.62;1.97;1.30;;;23.60;31.50;;;;;;2255882;61;20366;-58
2022/12/31 10:56:47;0.00;0.00;0.62;0.00;0.00;0.62;1.83;1.10;;;23.60;30.80;;;;;;2255995;61;20416;-59
2022/12/31 11:00:14;0.00;0.00;0.62;0.00;0.00;0.62;2.67;1.20;;;23.60;30.70;;;;;;2255712;61;20362;-60
2022/12/31 11:04:07;0.00;0.00;0.62;0.00;0.00;0.62;2.13;1.17;;;23.70;30.80;;;;;;2255241;61;20415;-60
2022/12/31 11:07:31;0.00;0.00;0.62;0.00;0.00;0.62;1.50;0.90;;;23.70;30.80;;;;;;2255563;61;20373;-60
2022/12/31 11:11:03;0.00;0.00;0.62;0.00;0.00;0.62;1.77;1.00;;;23.70;30.80;;;;;;2255893;61;20377;-58
2022/12/31 11:14:18;0.00;0.00;0.62;0.00;0.00;0.62;1.70;1.00;;;23.70;30.80;;;;;;2254989;61;20386;-58
2022/12/31 11:17:32;0.00;0.00;0.62;0.00;0.00;0.62;2.00;1.07;;;23.70;30.70;;;;;;2255859;61;20440;-61
2022/12/31 11:20:37;0.00;0.00;0.62;0.00;0.00;0.62;1.67;1.10;;;23.70;30.70;;;;;;2253917;61;20489;-60
2022/12/31 11:23:38;0.00;0.00;0.62;0.00;0.00;0.62;2.43;0.90;;;23.70;30.70;;;;;;2255191;61;20370;-59
2022/12/31 11:26:38;0.00;0.00;0.62;0.00;0.00;0.62;1.33;0.90;;;23.70;30.70;;;;;;2254758;61;20366;-60
2022/12/31 11:29:44;0.00;0.00;0.62;0.00;0.00;0.62;1.50;1.10;;;23.70;30.60;;;;;;2251120;61;20422;-61
2022/12/31 11:32:47;0.00;0.00;0.62;0.00;0.00;0.62;2.37;1.00;;;23.70;30.60;;;;;;2251526;61;20366;-60
2022/12/31 11:35:54;0.00;0.00;0.62;0.00;0.00;0.62;2.00;1.00;;;23.70;30.60;;;;;;2255966;61;20421;-60